sensor_id;sensor_type;location;lat;lon;timestamp;temperature;humidity
73665;DHT22;61964;52.052;4.474;2023-05-10T00:47:05;24.24;46.81
73665;DHT22;61964;52.052;4.474;2023-05-10T01:42:36;24.13;46.91
73665;DHT22;61964;52.052;4.474;2023-05-10T02:34:09;24.08;47.12
73665;DHT22;61964;52.052;4.474;2023-05-10T04:17:38;24.00;46.98
73665;DHT22;61964;52.052;4.474;2023-05-10T04:45:00;23.99;47.04
73665;DHT22;61964;52.052;4.474;2023-05-10T05:39:50;23.95;46.90
73665;DHT22;61964;52.052;4.474;2023-05-10T07:36:05;22.72;53.17
73665;DHT22;61964;52.052;4.474;2023-05-10T07:38:31;22.67;53.00
73665;DHT22;61964;52.052;4.474;2023-05-10T07:40:56;22.62;53.47
73665;DHT22;61964;52.052;4.474;2023-05-10T07:43:22;22.60;53.45
73665;DHT22;61964;52.052;4.474;2023-05-10T07:45:48;22.59;53.11
73665;DHT22;61964;52.052;4.474;2023-05-10T07:48:13;22.63;53.23
73665;DHT22;61964;52.052;4.474;2023-05-10T07:50:39;22.64;53.44
73665;DHT22;61964;52.052;4.474;2023-05-10T07:53:05;22.63;53.34
73665;DHT22;61964;52.052;4.474;2023-05-10T07:55:31;22.64;53.53
73665;DHT22;61964;52.052;4.474;2023-05-10T07:57:56;22.62;53.15
73665;DHT22;61964;52.052;4.474;2023-05-10T08:00:22;22.66;53.43
73665;DHT22;61964;52.052;4.474;2023-05-10T08:02:48;22.66;53.77
73665;DHT22;61964;52.052;4.474;2023-05-10T08:05:14;22.70;53.92
73665;DHT22;61964;52.052;4.474;2023-05-10T08:07:40;22.72;53.50
73665;DHT22;61964;52.052;4.474;2023-05-10T08:14:21;20.01;59.70
73665;DHT22;61964;52.052;4.474;2023-05-10T08:16:46;19.21;62.62
73665;DHT22;61964;52.052;4.474;2023-05-10T08:19:12;18.77;63.83
73665;DHT22;61964;52.052;4.474;2023-05-10T08:21:38;18.29;66.20
73665;DHT22;61964;52.052;4.474;2023-05-10T08:24:06;18.09;66.51
73665;DHT22;61964;52.052;4.474;2023-05-10T08:26:33;17.75;67.36
73665;DHT22;61964;52.052;4.474;2023-05-10T08:28:59;17.44;68.22
73665;DHT22;61964;52.052;4.474;2023-05-10T08:31:24;17.24;68.13
73665;DHT22;61964;52.052;4.474;2023-05-10T08:33:50;17.11;69.70
73665;DHT22;61964;52.052;4.474;2023-05-10T08:36:18;16.96;70.64
73665;DHT22;61964;52.052;4.474;2023-05-10T08:38:49;16.94;71.04
73665;DHT22;61964;52.052;4.474;2023-05-10T08:41:16;17.00;71.07
73665;DHT22;61964;52.052;4.474;2023-05-10T08:43:43;17.11;69.71
73665;DHT22;61964;52.052;4.474;2023-05-10T08:46:16;17.16;69.71
73665;DHT22;61964;52.052;4.474;2023-05-10T08:48:45;17.14;69.77
73665;DHT22;61964;52.052;4.474;2023-05-10T08:51:18;17.03;69.39
73665;DHT22;61964;52.052;4.474;2023-05-10T08:53:45;16.86;70.30
73665;DHT22;61964;52.052;4.474;2023-05-10T08:56:11;16.70;71.16
73665;DHT22;61964;52.052;4.474;2023-05-10T08:58:37;16.68;71.15
73665;DHT22;61964;52.052;4.474;2023-05-10T09:01:05;16.63;70.79
73665;DHT22;61964;52.052;4.474;2023-05-10T09:03:31;16.52;71.41
73665;DHT22;61964;52.052;4.474;2023-05-10T09:05:58;16.52;71.65
73665;DHT22;61964;52.052;4.474;2023-05-10T09:08:25;16.58;71.62
73665;DHT22;61964;52.052;4.474;2023-05-10T09:10:51;16.52;71.40
73665;DHT22;61964;52.052;4.474;2023-05-10T09:13:18;16.39;72.30
73665;DHT22;61964;52.052;4.474;2023-05-10T09:15:45;16.82;72.19
73665;DHT22;61964;52.052;4.474;2023-05-10T09:18:12;17.23;71.64
73665;DHT22;61964;52.052;4.474;2023-05-10T09:20:37;17.42;70.98
73665;DHT22;61964;52.052;4.474;2023-05-10T09:23:03;17.93;69.53
73665;DHT22;61964;52.052;4.474;2023-05-10T09:25:29;17.55;69.26
73665;DHT22;61964;52.052;4.474;2023-05-10T09:27:55;17.57;70.86
73665;DHT22;61964;52.052;4.474;2023-05-10T09:30:30;17.32;69.67
73665;DHT22;61964;52.052;4.474;2023-05-10T09:32:58;17.13;69.53
73665;DHT22;61964;52.052;4.474;2023-05-10T09:35:29;17.32;69.71
73665;DHT22;61964;52.052;4.474;2023-05-10T09:37:59;17.62;69.24
73665;DHT22;61964;52.052;4.474;2023-05-10T09:40:27;17.96;67.95
73665;DHT22;61964;52.052;4.474;2023-05-10T09:43:04;19.01;67.88
73665;DHT22;61964;52.052;4.474;2023-05-10T09:45:33;20.17;61.24
73665;DHT22;61964;52.052;4.474;2023-05-10T09:48:01;19.84;63.14
73665;DHT22;61964;52.052;4.474;2023-05-10T09:50:29;19.56;64.45
73665;DHT22;61964;52.052;4.474;2023-05-10T09:53:01;19.58;62.86
73665;DHT22;61964;52.052;4.474;2023-05-10T09:55:46;19.91;64.39
73665;DHT22;61964;52.052;4.474;2023-05-10T09:58:13;19.39;63.22
73665;DHT22;61964;52.052;4.474;2023-05-10T10:00:44;18.94;64.65
73665;DHT22;61964;52.052;4.474;2023-05-10T10:03:18;18.54;64.72
73665;DHT22;61964;52.052;4.474;2023-05-10T10:05:45;18.36;65.69
73665;DHT22;61964;52.052;4.474;2023-05-10T10:08:13;18.20;66.60
73665;DHT22;61964;52.052;4.474;2023-05-10T10:10:40;18.02;67.03
73665;DHT22;61964;52.052;4.474;2023-05-10T10:13:06;17.45;68.92
73665;DHT22;61964;52.052;4.474;2023-05-10T10:15:34;17.10;70.17
73665;DHT22;61964;52.052;4.474;2023-05-10T10:18:00;16.97;70.84
73665;DHT22;61964;52.052;4.474;2023-05-10T10:20:27;17.20;69.64
73665;DHT22;61964;52.052;4.474;2023-05-10T10:22:53;17.21;70.12
73665;DHT22;61964;52.052;4.474;2023-05-10T10:25:21;17.13;69.35
73665;DHT22;61964;52.052;4.474;2023-05-10T10:31:54;17.24;69.33
73665;DHT22;61964;52.052;4.474;2023-05-10T10:34:05;17.34;68.84
73665;DHT22;61964;52.052;4.474;2023-05-10T10:36:54;17.42;68.25
73665;DHT22;61964;52.052;4.474;2023-05-10T10:39:20;17.30;68.92
73665;DHT22;61964;52.052;4.474;2023-05-10T10:42:09;16.77;70.55
73665;DHT22;61964;52.052;4.474;2023-05-10T10:44:36;16.56;70.39
73665;DHT22;61964;52.052;4.474;2023-05-10T10:50:18;16.24;71.27
73665;DHT22;61964;52.052;4.474;2023-05-10T10:52:45;16.04;71.47
73665;DHT22;61964;52.052;4.474;2023-05-10T10:55:14;16.11;71.86
73665;DHT22;61964;52.052;4.474;2023-05-10T10:58:00;16.35;71.52
73665;DHT22;61964;52.052;4.474;2023-05-10T11:00:32;16.56;70.73
73665;DHT22;61964;52.052;4.474;2023-05-10T11:03:03;16.44;70.65
73665;DHT22;61964;52.052;4.474;2023-05-10T11:05:58;16.45;70.86
73665;DHT22;61964;52.052;4.474;2023-05-10T11:08:32;16.36;71.83
73665;DHT22;61964;52.052;4.474;2023-05-10T11:11:20;16.15;71.60
73665;DHT22;61964;52.052;4.474;2023-05-10T11:13:48;15.87;72.20
73665;DHT22;61964;52.052;4.474;2023-05-10T11:16:40;15.89;73.21
73665;DHT22;61964;52.052;4.474;2023-05-10T11:19:08;15.81;72.31
73665;DHT22;61964;52.052;4.474;2023-05-10T11:21:48;15.89;72.22
73665;DHT22;61964;52.052;4.474;2023-05-10T11:24:17;16.01;72.13
73665;DHT22;61964;52.052;4.474;2023-05-10T11:26:43;16.33;71.71
73665;DHT22;61964;52.052;4.474;2023-05-10T11:29:09;16.24;71.15
73665;DHT22;61964;52.052;4.474;2023-05-10T11:31:45;16.21;71.19
73665;DHT22;61964;52.052;4.474;2023-05-10T11:34:24;16.35;71.28
73665;DHT22;61964;52.052;4.474;2023-05-10T11:36:55;16.51;70.24
73665;DHT22;61964;52.052;4.474;2023-05-10T11:39:21;16.52;70.00
73665;DHT22;61964;52.052;4.474;2023-05-10T11:41:50;16.77;70.61
73665;DHT22;61964;52.052;4.474;2023-05-10T11:44:16;17.09;70.05
73665;DHT22;61964;52.052;4.474;2023-05-10T11:46:42;17.11;69.02
73665;DHT22;61964;52.052;4.474;2023-05-10T11:49:08;17.19;68.99
73665;DHT22;61964;52.052;4.474;2023-05-10T11:51:35;16.97;68.98
73665;DHT22;61964;52.052;4.474;2023-05-10T11:54:09;16.96;69.50
73665;DHT22;61964;52.052;4.474;2023-05-10T11:56:35;17.23;68.88
73665;DHT22;61964;52.052;4.474;2023-05-10T11:59:01;17.42;68.67
73665;DHT22;61964;52.052;4.474;2023-05-10T12:01:29;17.24;68.12
73665;DHT22;61964;52.052;4.474;2023-05-10T12:03:56;17.26;68.25
73665;DHT22;61964;52.052;4.474;2023-05-10T12:06:31;17.38;68.01
73665;DHT22;61964;52.052;4.474;2023-05-10T12:08:57;18.01;67.33
73665;DHT22;61964;52.052;4.474;2023-05-10T12:11:27;17.48;66.91
73665;DHT22;61964;52.052;4.474;2023-05-10T12:13:54;17.48;67.72
73665;DHT22;61964;52.052;4.474;2023-05-10T12:16:25;17.52;67.52
73665;DHT22;61964;52.052;4.474;2023-05-10T12:18:57;18.03;68.18
73665;DHT22;61964;52.052;4.474;2023-05-10T12:21:22;17.70;65.96
73665;DHT22;61964;52.052;4.474;2023-05-10T12:23:53;17.41;67.29
73665;DHT22;61964;52.052;4.474;2023-05-10T12:26:23;17.21;67.98
73665;DHT22;61964;52.052;4.474;2023-05-10T12:28:50;16.90;69.16
73665;DHT22;61964;52.052;4.474;2023-05-10T12:31:15;16.79;70.13
73665;DHT22;61964;52.052;4.474;2023-05-10T12:33:45;16.90;69.46
73665;DHT22;61964;52.052;4.474;2023-05-10T12:36:13;16.83;69.25
73665;DHT22;61964;52.052;4.474;2023-05-10T12:38:42;16.83;69.56
73665;DHT22;61964;52.052;4.474;2023-05-10T12:41:15;16.72;69.71
73665;DHT22;61964;52.052;4.474;2023-05-10T12:43:41;16.48;69.97
73665;DHT22;61964;52.052;4.474;2023-05-10T12:46:12;16.66;69.79
73665;DHT22;61964;52.052;4.474;2023-05-10T12:48:42;17.06;70.81
73665;DHT22;61964;52.052;4.474;2023-05-10T12:51:09;17.50;67.47
73665;DHT22;61964;52.052;4.474;2023-05-10T12:53:38;17.78;66.90
73665;DHT22;61964;52.052;4.474;2023-05-10T12:56:05;17.72;67.27
73665;DHT22;61964;52.052;4.474;2023-05-10T12:58:31;17.44;67.41
73665;DHT22;61964;52.052;4.474;2023-05-10T13:00:58;17.42;68.67
73665;DHT22;61964;52.052;4.474;2023-05-10T13:03:24;17.48;66.99
73665;DHT22;61964;52.052;4.474;2023-05-10T13:05:50;17.62;66.96
73665;DHT22;61964;52.052;4.474;2023-05-10T13:08:15;17.79;66.31
73665;DHT22;61964;52.052;4.474;2023-05-10T13:10:41;17.62;66.41
73665;DHT22;61964;52.052;4.474;2023-05-10T13:13:07;17.07;68.43
73665;DHT22;61964;52.052;4.474;2023-05-10T13:15:34;16.80;69.14
73665;DHT22;61964;52.052;4.474;2023-05-10T13:17:59;16.84;69.32
73665;DHT22;61964;52.052;4.474;2023-05-10T13:20:25;17.02;69.17
73665;DHT22;61964;52.052;4.474;2023-05-10T13:22:51;17.09;68.45
73665;DHT22;61964;52.052;4.474;2023-05-10T13:25:17;16.90;69.05
73665;DHT22;61964;52.052;4.474;2023-05-10T13:27:42;16.56;69.41
73665;DHT22;61964;52.052;4.474;2023-05-10T13:30:09;16.41;70.35
73665;DHT22;61964;52.052;4.474;2023-05-10T13:32:35;16.36;70.70
73665;DHT22;61964;52.052;4.474;2023-05-10T13:35:01;16.49;70.47
73665;DHT22;61964;52.052;4.474;2023-05-10T13:37:29;16.58;70.64
73665;DHT22;61964;52.052;4.474;2023-05-10T13:39:55;16.56;70.47
73665;DHT22;61964;52.052;4.474;2023-05-10T13:42:22;16.18;70.73
73665;DHT22;61964;52.052;4.474;2023-05-10T13:44:49;16.12;71.14
73665;DHT22;61964;52.052;4.474;2023-05-10T13:47:14;16.22;70.82
73665;DHT22;61964;52.052;4.474;2023-05-10T13:49:40;16.35;69.71
73665;DHT22;61964;52.052;4.474;2023-05-10T13:52:06;16.25;70.14
73665;DHT22;61964;52.052;4.474;2023-05-10T13:54:38;16.22;70.39
73665;DHT22;61964;52.052;4.474;2023-05-10T13:57:04;16.26;70.71
73665;DHT22;61964;52.052;4.474;2023-05-10T13:59:30;16.55;70.07
73665;DHT22;61964;52.052;4.474;2023-05-10T14:02:00;16.68;69.30
73665;DHT22;61964;52.052;4.474;2023-05-10T14:04:28;16.79;69.68
73665;DHT22;61964;52.052;4.474;2023-05-10T14:06:54;16.90;68.72
73665;DHT22;61964;52.052;4.474;2023-05-10T14:09:20;16.80;68.72
73665;DHT22;61964;52.052;4.474;2023-05-10T14:11:46;16.66;69.74
73665;DHT22;61964;52.052;4.474;2023-05-10T14:14:12;16.61;69.95
73665;DHT22;61964;52.052;4.474;2023-05-10T14:16:42;16.83;69.52
73665;DHT22;61964;52.052;4.474;2023-05-10T14:19:11;17.10;69.51
73665;DHT22;61964;52.052;4.474;2023-05-10T14:21:37;17.34;67.64
73665;DHT22;61964;52.052;4.474;2023-05-10T14:24:03;17.45;68.00
73665;DHT22;61964;52.052;4.474;2023-05-10T14:26:29;16.96;68.33
73665;DHT22;61964;52.052;4.474;2023-05-10T14:28:56;16.69;69.45
73665;DHT22;61964;52.052;4.474;2023-05-10T14:31:22;16.65;70.01
73665;DHT22;61964;52.052;4.474;2023-05-10T14:33:50;16.84;69.53
73665;DHT22;61964;52.052;4.474;2023-05-10T14:36:15;17.14;69.81
73665;DHT22;61964;52.052;4.474;2023-05-10T14:38:41;17.31;67.82
73665;DHT22;61964;52.052;4.474;2023-05-10T14:41:07;17.28;68.18
73665;DHT22;61964;52.052;4.474;2023-05-10T14:43:33;17.17;68.20
73665;DHT22;61964;52.052;4.474;2023-05-10T14:45:59;16.97;69.00
73665;DHT22;61964;52.052;4.474;2023-05-10T14:48:24;17.03;69.35
73665;DHT22;61964;52.052;4.474;2023-05-10T14:50:50;16.96;69.01
73665;DHT22;61964;52.052;4.474;2023-05-10T14:53:18;16.82;69.59
73665;DHT22;61964;52.052;4.474;2023-05-10T14:55:44;16.76;69.21
73665;DHT22;61964;52.052;4.474;2023-05-10T14:58:09;16.80;69.97
73665;DHT22;61964;52.052;4.474;2023-05-10T15:00:35;16.61;69.60
73665;DHT22;61964;52.052;4.474;2023-05-10T15:03:01;16.52;70.12
73665;DHT22;61964;52.052;4.474;2023-05-10T15:05:27;16.48;69.54
73665;DHT22;61964;52.052;4.474;2023-05-10T15:07:53;16.65;69.59
73665;DHT22;61964;52.052;4.474;2023-05-10T15:10:18;16.84;69.41
73665;DHT22;61964;52.052;4.474;2023-05-10T15:12:44;16.94;68.84
73665;DHT22;61964;52.052;4.474;2023-05-10T15:15:10;17.09;68.23
73665;DHT22;61964;52.052;4.474;2023-05-10T15:17:35;17.42;67.36
73665;DHT22;61964;52.052;4.474;2023-05-10T15:20:02;17.35;66.67
73665;DHT22;61964;52.052;4.474;2023-05-10T15:22:30;17.42;67.52
73665;DHT22;61964;52.052;4.474;2023-05-10T15:25:00;17.58;66.10
73665;DHT22;61964;52.052;4.474;2023-05-10T15:27:27;17.51;66.78
73665;DHT22;61964;52.052;4.474;2023-05-10T15:29:52;17.50;66.77
73665;DHT22;61964;52.052;4.474;2023-05-10T15:32:18;17.41;67.16
73665;DHT22;61964;52.052;4.474;2023-05-10T15:34:44;17.35;67.64
73665;DHT22;61964;52.052;4.474;2023-05-10T15:37:10;17.27;67.70
73665;DHT22;61964;52.052;4.474;2023-05-10T15:39:36;17.30;67.28
73665;DHT22;61964;52.052;4.474;2023-05-10T15:42:01;17.03;67.76
73665;DHT22;61964;52.052;4.474;2023-05-10T15:44:28;17.02;68.19
73665;DHT22;61964;52.052;4.474;2023-05-10T15:46:54;17.16;68.32
73665;DHT22;61964;52.052;4.474;2023-05-10T15:49:20;17.00;68.26
73665;DHT22;61964;52.052;4.474;2023-05-10T15:51:46;16.80;69.38
73665;DHT22;61964;52.052;4.474;2023-05-10T15:54:12;16.75;69.88
73665;DHT22;61964;52.052;4.474;2023-05-10T15:56:37;16.87;69.28
73665;DHT22;61964;52.052;4.474;2023-05-10T15:59:03;17.03;69.08
73665;DHT22;61964;52.052;4.474;2023-05-10T16:01:30;17.17;68.34
73665;DHT22;61964;52.052;4.474;2023-05-10T16:03:57;17.27;67.97
73665;DHT22;61964;52.052;4.474;2023-05-10T16:06:23;17.09;68.45
73665;DHT22;61964;52.052;4.474;2023-05-10T16:08:48;16.76;69.32
73665;DHT22;61964;52.052;4.474;2023-05-10T16:11:29;16.21;70.70
73665;DHT22;61964;52.052;4.474;2023-05-10T16:13:55;16.32;70.34
73665;DHT22;61964;52.052;4.474;2023-05-10T16:16:21;16.12;70.79
73665;DHT22;61964;52.052;4.474;2023-05-10T16:18:47;16.22;70.97
73665;DHT22;61964;52.052;4.474;2023-05-10T16:21:13;16.53;70.38
73665;DHT22;61964;52.052;4.474;2023-05-10T16:23:38;16.61;69.37
73665;DHT22;61964;52.052;4.474;2023-05-10T16:26:04;16.59;69.73
73665;DHT22;61964;52.052;4.474;2023-05-10T16:28:30;16.45;70.10
73665;DHT22;61964;52.052;4.474;2023-05-10T16:30:56;16.72;69.72
73665;DHT22;61964;52.052;4.474;2023-05-10T16:33:22;16.66;69.27
73665;DHT22;61964;52.052;4.474;2023-05-10T16:35:48;16.18;70.44
73665;DHT22;61964;52.052;4.474;2023-05-10T16:38:13;15.90;71.04
73665;DHT22;61964;52.052;4.474;2023-05-10T16:40:39;15.77;71.14
73665;DHT22;61964;52.052;4.474;2023-05-10T16:43:05;15.77;71.37
73665;DHT22;61964;52.052;4.474;2023-05-10T16:45:31;15.71;71.07
73665;DHT22;61964;52.052;4.474;2023-05-10T16:47:57;15.70;71.97
73665;DHT22;61964;52.052;4.474;2023-05-10T16:50:22;15.84;70.88
73665;DHT22;61964;52.052;4.474;2023-05-10T16:52:48;15.64;71.38
73665;DHT22;61964;52.052;4.474;2023-05-10T16:55:14;15.46;72.02
73665;DHT22;61964;52.052;4.474;2023-05-10T16:57:40;15.28;71.90
73665;DHT22;61964;52.052;4.474;2023-05-10T17:00:06;15.32;71.94
73665;DHT22;61964;52.052;4.474;2023-05-10T17:02:32;15.53;72.03
73665;DHT22;61964;52.052;4.474;2023-05-10T17:04:58;15.66;71.40
73665;DHT22;61964;52.052;4.474;2023-05-10T17:07:24;15.47;71.72
73665;DHT22;61964;52.052;4.474;2023-05-10T17:09:49;15.42;72.04
73665;DHT22;61964;52.052;4.474;2023-05-10T17:12:15;15.35;72.37
73665;DHT22;61964;52.052;4.474;2023-05-10T17:14:41;15.42;71.70
73665;DHT22;61964;52.052;4.474;2023-05-10T17:17:07;15.53;71.65
73665;DHT22;61964;52.052;4.474;2023-05-10T17:19:33;15.47;71.70
73665;DHT22;61964;52.052;4.474;2023-05-10T17:21:59;15.29;72.29
73665;DHT22;61964;52.052;4.474;2023-05-10T17:24:25;15.11;72.83
73665;DHT22;61964;52.052;4.474;2023-05-10T17:26:54;14.96;72.87
73665;DHT22;61964;52.052;4.474;2023-05-10T17:29:22;14.99;72.66
73665;DHT22;61964;52.052;4.474;2023-05-10T17:31:47;15.05;72.46
73665;DHT22;61964;52.052;4.474;2023-05-10T17:34:13;14.95;72.38
73665;DHT22;61964;52.052;4.474;2023-05-10T17:36:48;14.89;73.08
73665;DHT22;61964;52.052;4.474;2023-05-10T17:39:13;14.89;73.05
73665;DHT22;61964;52.052;4.474;2023-05-10T17:41:39;14.93;73.46
73665;DHT22;61964;52.052;4.474;2023-05-10T17:44:05;14.81;73.66
73665;DHT22;61964;52.052;4.474;2023-05-10T17:46:31;14.85;73.35
73665;DHT22;61964;52.052;4.474;2023-05-10T17:48:57;14.88;72.92
73665;DHT22;61964;52.052;4.474;2023-05-10T17:51:23;14.91;72.71
73665;DHT22;61964;52.052;4.474;2023-05-10T17:53:49;14.88;72.94
73665;DHT22;61964;52.052;4.474;2023-05-10T17:56:14;14.84;73.44
73665;DHT22;61964;52.052;4.474;2023-05-10T17:58:40;14.88;72.93
73665;DHT22;61964;52.052;4.474;2023-05-10T18:01:06;14.96;72.79
73665;DHT22;61964;52.052;4.474;2023-05-10T18:03:32;14.63;73.79
73665;DHT22;61964;52.052;4.474;2023-05-10T18:06:01;14.52;74.31
73665;DHT22;61964;52.052;4.474;2023-05-10T18:08:27;14.54;74.45
73665;DHT22;61964;52.052;4.474;2023-05-10T18:10:55;14.75;73.74
73665;DHT22;61964;52.052;4.474;2023-05-10T18:13:21;14.84;73.44
73665;DHT22;61964;52.052;4.474;2023-05-10T18:15:47;14.87;73.40
73665;DHT22;61964;52.052;4.474;2023-05-10T18:18:13;14.77;73.72
73665;DHT22;61964;52.052;4.474;2023-05-10T18:20:39;14.77;73.74
73665;DHT22;61964;52.052;4.474;2023-05-10T18:23:05;14.77;73.66
73665;DHT22;61964;52.052;4.474;2023-05-10T18:25:31;14.71;74.20
73665;DHT22;61964;52.052;4.474;2023-05-10T18:27:57;14.75;74.14
73665;DHT22;61964;52.052;4.474;2023-05-10T18:30:23;14.85;73.65
73665;DHT22;61964;52.052;4.474;2023-05-10T18:32:48;15.01;73.00
73665;DHT22;61964;52.052;4.474;2023-05-10T18:35:14;14.99;73.01
73665;DHT22;61964;52.052;4.474;2023-05-10T18:37:41;14.99;73.14
73665;DHT22;61964;52.052;4.474;2023-05-10T18:40:07;15.15;72.63
73665;DHT22;61964;52.052;4.474;2023-05-10T18:42:39;14.91;73.24
73665;DHT22;61964;52.052;4.474;2023-05-10T18:45:06;14.89;73.32
73665;DHT22;61964;52.052;4.474;2023-05-10T18:47:47;14.88;73.26
73665;DHT22;61964;52.052;4.474;2023-05-10T18:50:13;14.72;73.76
73665;DHT22;61964;52.052;4.474;2023-05-10T18:52:41;14.80;73.94
73665;DHT22;61964;52.052;4.474;2023-05-10T18:55:07;14.88;73.40
73665;DHT22;61964;52.052;4.474;2023-05-10T18:57:33;14.99;72.85
73665;DHT22;61964;52.052;4.474;2023-05-10T19:00:07;15.06;72.56
73665;DHT22;61964;52.052;4.474;2023-05-10T19:02:38;15.13;72.76
73665;DHT22;61964;52.052;4.474;2023-05-10T19:05:05;15.13;72.09
73665;DHT22;61964;52.052;4.474;2023-05-10T19:07:32;15.01;72.79
73665;DHT22;61964;52.052;4.474;2023-05-10T19:12:39;14.37;74.58
73665;DHT22;61964;52.052;4.474;2023-05-10T19:15:08;14.47;74.64
73665;DHT22;61964;52.052;4.474;2023-05-10T19:17:34;14.50;74.38
73665;DHT22;61964;52.052;4.474;2023-05-10T19:20:01;14.48;74.72
73665;DHT22;61964;52.052;4.474;2023-05-10T19:22:26;14.51;74.72
73665;DHT22;61964;52.052;4.474;2023-05-10T19:24:52;14.64;74.74
73665;DHT22;61964;52.052;4.474;2023-05-10T19:27:18;14.67;74.25
73665;DHT22;61964;52.052;4.474;2023-05-10T19:29:43;14.50;74.55
73665;DHT22;61964;52.052;4.474;2023-05-10T19:32:09;14.42;74.95
73665;DHT22;61964;52.052;4.474;2023-05-10T19:34:36;14.23;75.31
73665;DHT22;61964;52.052;4.474;2023-05-10T19:37:01;14.19;75.74
73665;DHT22;61964;52.052;4.474;2023-05-10T19:39:27;14.00;76.06
73665;DHT22;61964;52.052;4.474;2023-05-10T19:41:55;13.89;76.77
73665;DHT22;61964;52.052;4.474;2023-05-10T19:44:21;13.86;76.68
73665;DHT22;61964;52.052;4.474;2023-05-10T19:46:46;14.00;76.32
73665;DHT22;61964;52.052;4.474;2023-05-10T19:49:12;14.02;76.20
73665;DHT22;61964;52.052;4.474;2023-05-10T19:51:38;14.02;76.28
73665;DHT22;61964;52.052;4.474;2023-05-10T19:54:03;14.00;76.30
73665;DHT22;61964;52.052;4.474;2023-05-10T19:56:29;14.02;76.19
73665;DHT22;61964;52.052;4.474;2023-05-10T19:58:55;14.05;76.22
73665;DHT22;61964;52.052;4.474;2023-05-10T20:01:36;14.14;76.44
73665;DHT22;61964;52.052;4.474;2023-05-10T20:04:01;14.10;76.22
73665;DHT22;61964;52.052;4.474;2023-05-10T20:06:27;14.26;76.11
73665;DHT22;61964;52.052;4.474;2023-05-10T20:08:53;14.31;74.86
73665;DHT22;61964;52.052;4.474;2023-05-10T20:11:19;14.19;75.28
73665;DHT22;61964;52.052;4.474;2023-05-10T20:13:46;14.13;75.95
73665;DHT22;61964;52.052;4.474;2023-05-10T20:16:11;14.24;75.27
73665;DHT22;61964;52.052;4.474;2023-05-10T20:18:37;14.19;75.30
73665;DHT22;61964;52.052;4.474;2023-05-10T20:21:03;14.10;75.69
73665;DHT22;61964;52.052;4.474;2023-05-10T20:23:29;13.92;76.39
73665;DHT22;61964;52.052;4.474;2023-05-10T20:25:54;13.93;76.35
73665;DHT22;61964;52.052;4.474;2023-05-10T20:28:24;13.87;76.79
73665;DHT22;61964;52.052;4.474;2023-05-10T20:30:52;13.82;76.78
73665;DHT22;61964;52.052;4.474;2023-05-10T20:33:19;13.80;76.98
73665;DHT22;61964;52.052;4.474;2023-05-10T20:35:45;13.90;76.50
73665;DHT22;61964;52.052;4.474;2023-05-10T20:38:11;13.93;76.37
73665;DHT22;61964;52.052;4.474;2023-05-10T20:40:37;13.93;76.43
73665;DHT22;61964;52.052;4.474;2023-05-10T20:43:02;14.02;76.21
73665;DHT22;61964;52.052;4.474;2023-05-10T20:45:29;14.02;75.74
73665;DHT22;61964;52.052;4.474;2023-05-10T20:47:55;13.98;75.68
73665;DHT22;61964;52.052;4.474;2023-05-10T20:50:21;13.93;76.23
73665;DHT22;61964;52.052;4.474;2023-05-10T20:52:47;14.10;75.90
73665;DHT22;61964;52.052;4.474;2023-05-10T20:55:15;14.24;75.09
73665;DHT22;61964;52.052;4.474;2023-05-10T20:57:41;14.27;74.44
73665;DHT22;61964;52.052;4.474;2023-05-10T21:00:07;14.16;74.89
73665;DHT22;61964;52.052;4.474;2023-05-10T21:02:33;14.17;74.82
73665;DHT22;61964;52.052;4.474;2023-05-10T21:04:59;14.17;75.16
73665;DHT22;61964;52.052;4.474;2023-05-10T21:07:25;14.26;75.08
73665;DHT22;61964;52.052;4.474;2023-05-10T21:09:51;14.26;74.49
73665;DHT22;61964;52.052;4.474;2023-05-10T21:12:16;14.19;74.96
73665;DHT22;61964;52.052;4.474;2023-05-10T21:14:42;14.17;74.88
73665;DHT22;61964;52.052;4.474;2023-05-10T21:17:11;14.16;75.70
73665;DHT22;61964;52.052;4.474;2023-05-10T21:19:37;14.20;75.20
73665;DHT22;61964;52.052;4.474;2023-05-10T21:22:03;14.21;74.96
73665;DHT22;61964;52.052;4.474;2023-05-10T21:27:10;14.14;75.43
73665;DHT22;61964;52.052;4.474;2023-05-10T21:29:36;14.16;75.57
73665;DHT22;61964;52.052;4.474;2023-05-10T21:32:02;14.10;75.77
73665;DHT22;61964;52.052;4.474;2023-05-10T21:34:28;14.19;75.49
73665;DHT22;61964;52.052;4.474;2023-05-10T21:36:53;14.31;74.98
73665;DHT22;61964;52.052;4.474;2023-05-10T21:39:19;14.20;75.26
73665;DHT22;61964;52.052;4.474;2023-05-10T21:41:45;14.19;75.75
73665;DHT22;61964;52.052;4.474;2023-05-10T21:44:10;14.23;75.48
73665;DHT22;61964;52.052;4.474;2023-05-10T21:46:36;14.34;75.08
73665;DHT22;61964;52.052;4.474;2023-05-10T21:49:11;14.31;75.16
73665;DHT22;61964;52.052;4.474;2023-05-10T21:51:36;14.34;74.96
73665;DHT22;61964;52.052;4.474;2023-05-10T21:54:02;14.36;75.04
73665;DHT22;61964;52.052;4.474;2023-05-10T21:56:28;14.34;74.93
73665;DHT22;61964;52.052;4.474;2023-05-10T21:58:54;14.36;74.87
73665;DHT22;61964;52.052;4.474;2023-05-10T22:01:20;14.34;74.58
73665;DHT22;61964;52.052;4.474;2023-05-10T22:03:45;14.34;74.57
73665;DHT22;61964;52.052;4.474;2023-05-10T22:06:11;14.36;74.49
73665;DHT22;61964;52.052;4.474;2023-05-10T22:08:37;14.34;74.49
73665;DHT22;61964;52.052;4.474;2023-05-10T22:11:03;14.36;74.47
73665;DHT22;61964;52.052;4.474;2023-05-10T22:13:28;14.34;74.76
73665;DHT22;61964;52.052;4.474;2023-05-10T22:15:54;14.30;74.85
73665;DHT22;61964;52.052;4.474;2023-05-10T22:18:20;14.26;74.91
73665;DHT22;61964;52.052;4.474;2023-05-10T22:20:46;14.27;74.78
73665;DHT22;61964;52.052;4.474;2023-05-10T22:23:12;14.30;74.51
73665;DHT22;61964;52.052;4.474;2023-05-10T22:25:38;14.30;74.31
73665;DHT22;61964;52.052;4.474;2023-05-10T22:28:04;14.31;74.42
73665;DHT22;61964;52.052;4.474;2023-05-10T22:30:30;14.37;74.93
73665;DHT22;61964;52.052;4.474;2023-05-10T22:32:57;14.44;75.36
73665;DHT22;61964;52.052;4.474;2023-05-10T22:35:23;14.40;75.35
73665;DHT22;61964;52.052;4.474;2023-05-10T22:37:48;14.37;75.11
73665;DHT22;61964;52.052;4.474;2023-05-10T22:40:14;14.41;74.89
73665;DHT22;61964;52.052;4.474;2023-05-10T22:42:55;14.42;74.80
73665;DHT22;61964;52.052;4.474;2023-05-10T22:45:21;14.41;75.02
73665;DHT22;61964;52.052;4.474;2023-05-10T22:47:47;14.41;74.47
73665;DHT22;61964;52.052;4.474;2023-05-10T22:50:13;14.44;74.02
73665;DHT22;61964;52.052;4.474;2023-05-10T22:52:39;14.45;74.71
73665;DHT22;61964;52.052;4.474;2023-05-10T22:55:06;14.41;74.69
73665;DHT22;61964;52.052;4.474;2023-05-10T22:57:32;14.47;74.59
73665;DHT22;61964;52.052;4.474;2023-05-10T22:59:58;14.48;74.61
73665;DHT22;61964;52.052;4.474;2023-05-10T23:02:24;14.51;74.41
73665;DHT22;61964;52.052;4.474;2023-05-10T23:04:50;14.51;74.98
73665;DHT22;61964;52.052;4.474;2023-05-10T23:07:16;14.54;75.14